Time;durP1;ratioP1;P1;durP2;ratioP2;P2;SDS_P1;SDS_P2;PMS_P1;PMS_P2;Temp;Humidity;BMP_temperature;BMP_pressure;BME280_temperature;BME280_humidity;BME280_pressure;Samples;Min_cycle;Max_cycle;Signal;HPM_P1;HPM_P2
2022/04/20 00:01:42;;;;;;;13.68;6.88;;;;;;;23.10;15.00;97910.59;5070269;28;20835;-76
2022/04/20 00:04:08;;;;;;;16.42;7.63;;;;;;;23.30;14.95;97920.53;5072407;28;20393;-75
2022/04/20 00:06:34;;;;;;;13.00;6.63;;;;;;;23.28;14.76;97913.78;5072032;28;20160;-75
2022/04/20 00:09:01;;;;;;;17.27;8.57;;;;;;;23.03;15.37;97916.34;5076864;28;20500;-75
2022/04/20 00:11:27;;;;;;;19.95;9.85;;;;;;;23.14;15.46;97914.09;5068847;28;20069;-75
2022/04/20 00:13:53;;;;;;;14.38;8.55;;;;;;;23.16;15.42;97914.44;5069169;28;20119;-75
2022/04/20 00:16:19;;;;;;;14.45;7.93;;;;;;;22.76;15.17;97912.84;5070853;28;20557;-75
2022/04/20 00:18:45;;;;;;;15.63;7.78;;;;;;;22.50;15.39;97920.91;5072249;28;20078;-75
2022/04/20 00:21:11;;;;;;;21.02;10.75;;;;;;;22.49;16.17;97918.53;5073802;28;20039;-75
2022/04/20 00:23:37;;;;;;;15.43;7.10;;;;;;;22.66;15.81;97917.47;5074869;28;20055;-75
2022/04/20 00:26:03;;;;;;;18.92;9.07;;;;;;;22.94;15.35;97914.09;5071662;28;20085;-75
2022/04/20 00:28:29;;;;;;;16.35;8.27;;;;;;;23.21;15.15;97911.94;5068236;28;20054;-75
2022/04/20 00:30:55;;;;;;;14.48;8.25;;;;;;;23.02;15.35;97912.72;5072147;28;20032;-75
2022/04/20 00:33:21;;;;;;;20.20;9.85;;;;;;;22.61;15.33;97910.31;5069773;28;20086;-76
2022/04/20 00:35:48;;;;;;;20.55;10.80;;;;;;;22.50;15.41;97911.72;5069164;28;20036;-75
2022/04/20 00:38:16;;;;;;;17.88;8.77;;;;;;;22.64;15.45;97911.47;5070047;28;20111;-75
2022/04/20 00:40:44;;;;;;;21.20;10.50;;;;;;;22.94;15.09;97908.47;5073698;28;20032;-75
2022/04/20 00:43:11;;;;;;;17.88;9.88;;;;;;;23.00;14.97;97919.97;5073448;28;20107;-75
2022/04/20 00:45:39;;;;;;;16.88;9.30;;;;;;;22.98;15.24;97919.63;5067971;28;20040;-75
2022/04/20 00:48:07;;;;;;;17.30;8.82;;;;;;;22.65;15.38;97919.47;5078299;28;20075;-75
2022/04/20 00:50:33;;;;;;;22.15;10.40;;;;;;;22.37;15.83;97921.94;5068166;28;20156;-75
2022/04/20 00:52:59;;;;;;;26.27;10.98;;;;;;;22.63;15.57;97923.91;5070373;28;20040;-75
2022/04/20 00:55:25;;;;;;;18.77;10.18;;;;;;;22.89;15.17;97920.22;5070190;28;20028;-76
2022/04/20 00:57:51;;;;;;;16.75;9.45;;;;;;;23.02;15.01;97921.13;5075989;28;20059;-75
2022/04/20 01:00:18;;;;;;;19.35;10.00;;;;;;;23.08;14.97;97927.03;5072668;28;20036;-76
2022/04/20 01:02:44;;;;;;;19.98;10.75;;;;;;;22.80;15.77;97922.00;5068821;28;20486;-75
2022/04/20 01:05:10;;;;;;;17.75;10.23;;;;;;;22.63;15.84;97915.50;5064135;28;20085;-76
2022/04/20 01:07:37;;;;;;;22.13;11.27;;;;;;;22.54;15.60;97923.66;5068784;28;20091;-74
2022/04/20 01:10:04;;;;;;;24.25;11.48;;;;;;;22.33;15.90;97921.22;5069368;28;20081;-76
2022/04/20 01:12:31;;;;;;;17.58;9.55;;;;;;;22.45;15.73;97921.38;5068947;28;20490;-76
2022/04/20 01:14:57;;;;;;;24.13;10.82;;;;;;;22.72;15.50;97924.13;5071328;28;20037;-75
2022/04/20 01:17:23;;;;;;;18.30;9.55;;;;;;;22.75;15.73;97916.88;5066539;28;20050;-76
2022/04/20 01:19:49;;;;;;;19.52;10.10;;;;;;;22.63;15.68;97921.91;5067796;28;20108;-76
2022/04/20 01:22:16;;;;;;;25.33;10.63;;;;;;;22.75;15.78;97920.47;5069754;28;20016;-75
2022/04/20 01:24:42;;;;;;;19.83;9.40;;;;;;;22.89;15.84;97922.22;5069420;28;20036;-76
2022/04/20 01:27:08;;;;;;;20.08;10.20;;;;;;;22.97;15.60;97920.84;5066436;28;20123;-76
2022/04/20 01:29:35;;;;;;;18.00;9.65;;;;;;;22.92;15.46;97919.31;5072717;28;20040;-76
2022/04/20 01:32:01;;;;;;;19.52;10.70;;;;;;;22.66;15.74;97911.88;5075492;28;20119;-75
2022/04/20 01:34:27;;;;;;;20.25;9.30;;;;;;;22.77;15.42;97915.25;5071726;28;20554;-76
2022/04/20 01:36:53;;;;;;;21.50;10.20;;;;;;;22.65;15.64;97908.25;5070028;28;20037;-74
2022/04/20 01:39:19;;;;;;;16.42;8.95;;;;;;;22.77;15.48;97908.84;5072313;28;20198;-75
2022/04/20 01:41:45;;;;;;;19.60;10.10;;;;;;;22.93;15.21;97909.72;5074479;28;20029;-75
2022/04/20 01:44:12;;;;;;;18.00;8.85;;;;;;;23.00;15.02;97905.97;5071336;28;20031;-75
2022/04/20 01:46:39;;;;;;;20.15;10.93;;;;;;;23.07;14.95;97908.63;5066415;28;20037;-75
2022/04/20 01:49:05;;;;;;;19.35;10.10;;;;;;;23.17;14.81;97907.63;5068086;28;20041;-75
2022/04/20 01:54:15;;;;;;;26.30;10.95;;;;;;;23.03;14.99;97911.53;5069912;28;20189;-76
2022/04/20 01:56:42;;;;;;;22.55;10.90;;;;;;;22.94;15.01;97904.91;5068149;28;20475;-75
2022/04/20 01:59:09;;;;;;;43.28;17.13;;;;;;;23.00;15.16;97908.78;5076299;28;20489;-76
2022/04/20 02:04:20;;;;;;;22.95;10.85;;;;;;;23.18;15.24;97910.00;5068563;28;20094;-75
2022/04/20 02:06:46;;;;;;;24.67;11.82;;;;;;;23.31;15.05;97905.31;5070709;28;20050;-75
2022/04/20 02:09:12;;;;;;;22.67;11.27;;;;;;;23.34;14.79;97901.66;5073171;28;20025;-76
2022/04/20 02:11:39;;;;;;;22.13;9.63;;;;;;;23.43;14.85;97903.91;5068727;28;20041;-76
2022/04/20 02:14:05;;;;;;;17.95;8.90;;;;;;;23.47;15.10;97901.81;5074579;28;20157;-76
2022/04/20 02:16:31;;;;;;;16.25;8.23;;;;;;;23.47;14.84;97901.81;5072255;28;20137;-76
2022/04/20 02:18:57;;;;;;;21.20;10.15;;;;;;;23.12;15.14;97903.34;5065964;28;20048;-75
2022/04/20 02:21:23;;;;;;;19.08;8.32;;;;;;;23.32;15.10;97894.88;5068360;28;20024;-76
2022/04/20 02:23:49;;;;;;;15.57;8.90;;;;;;;23.46;14.91;97894.59;5068905;28;20093;-76
2022/04/20 02:26:16;;;;;;;18.73;8.80;;;;;;;23.50;14.96;97888.94;5065422;28;20063;-75
2022/04/20 02:28:42;;;;;;;15.10;8.32;;;;;;;23.59;14.96;97881.50;5068460;28;20032;-76
2022/04/20 02:31:08;;;;;;;16.88;8.10;;;;;;;23.57;15.03;97878.34;5072071;28;20028;-76
2022/04/20 02:33:34;;;;;;;14.60;8.25;;;;;;;23.59;15.04;97877.91;5069195;28;20036;-76
2022/04/20 02:36:01;;;;;;;19.38;8.77;;;;;;;23.63;15.07;97873.81;5069914;28;20071;-76
2022/04/20 02:38:29;;;;;;;17.20;9.00;;;;;;;23.66;15.08;97875.75;5071514;28;20044;-76
2022/04/20 02:40:55;;;;;;;19.67;8.50;;;;;;;23.72;14.89;97873.19;5069861;28;20078;-76
2022/04/20 02:43:22;;;;;;;16.58;8.70;;;;;;;23.83;14.96;97877.31;5074544;28;20024;-76
2022/04/20 02:45:48;;;;;;;14.05;7.43;;;;;;;23.81;15.13;97871.38;5076015;28;20051;-75
2022/04/20 02:48:15;;;;;;;17.90;9.90;;;;;;;23.80;14.91;97874.63;5074118;28;20540;-75
2022/04/20 02:50:43;;;;;;;15.90;9.18;;;;;;;23.84;15.05;97878.91;5076173;28;20098;-76
2022/04/20 02:53:09;;;;;;;19.17;9.13;;;;;;;23.92;14.74;97885.91;5075436;28;20105;-75
2022/04/20 02:55:35;;;;;;;16.60;9.25;;;;;;;23.95;14.70;97879.44;5072205;28;20039;-75
2022/04/20 02:58:01;;;;;;;17.52;9.25;;;;;;;23.72;14.89;97881.59;5076290;28;20477;-76
2022/04/20 03:00:27;;;;;;;18.92;9.23;;;;;;;23.62;14.77;97886.22;5071782;28;20028;-76
2022/04/20 03:02:53;;;;;;;15.15;7.90;;;;;;;23.43;14.98;97889.91;5070819;28;20028;-76
2022/04/20 03:05:19;;;;;;;17.00;8.73;;;;;;;23.16;15.47;97894.84;5071548;28;20037;-76
2022/04/20 03:07:45;;;;;;;16.52;9.15;;;;;;;23.05;15.45;97886.69;5070109;28;20033;-76
2022/04/20 03:10:11;;;;;;;16.35;8.07;;;;;;;22.97;15.24;97895.63;5072309;28;20028;-76
2022/04/20 03:12:38;;;;;;;15.38;8.25;;;;;;;22.90;15.13;97890.19;5069102;28;20043;-76
2022/04/20 03:15:04;;;;;;;19.15;8.63;;;;;;;22.80;15.35;97891.19;5073062;28;20044;-76
2022/04/20 03:17:30;;;;;;;17.38;8.60;;;;;;;22.65;15.13;97893.47;5074213;28;20032;-76
2022/04/20 03:19:56;;;;;;;16.48;8.80;;;;;;;22.61;15.23;97885.13;5074534;28;20457;-75
2022/04/20 03:22:22;;;;;;;16.95;9.18;;;;;;;22.37;15.46;97888.38;5066039;28;20329;-75
2022/04/20 03:24:48;;;;;;;14.85;7.45;;;;;;;22.48;15.10;97886.97;5074757;28;20486;-76
2022/04/20 03:27:15;;;;;;;15.63;8.25;;;;;;;22.60;15.40;97885.53;5078376;28;20097;-76
2022/04/20 03:29:41;;;;;;;16.55;9.32;;;;;;;22.15;15.81;97889.97;5071042;28;20040;-75
2022/04/20 03:32:12;;;;;;;16.23;8.48;;;;;;;22.17;15.50;97879.94;5068256;28;20094;-75
2022/04/20 03:34:39;;;;;;;18.35;9.27;;;;;;;22.23;15.49;97889.41;5074165;28;20044;-76
2022/04/20 03:37:06;;;;;;;17.25;9.35;;;;;;;22.37;15.21;97879.97;5069090;28;20028;-75
2022/04/20 03:39:33;;;;;;;19.67;10.23;;;;;;;22.31;15.39;97890.88;5073106;28;20035;-75
2022/04/20 03:42:02;;;;;;;20.35;10.20;;;;;;;22.34;15.77;97881.63;5059957;28;20502;-75
2022/04/20 03:44:28;;;;;;;15.70;8.60;;;;;;;22.31;15.67;97884.50;5064095;28;20036;-74
2022/04/20 03:46:54;;;;;;;17.08;9.38;;;;;;;22.21;15.48;97882.69;5069642;28;20498;-74
2022/04/20 03:49:20;;;;;;;13.45;8.15;;;;;;;22.35;15.33;97877.63;5074029;28;20028;-74
2022/04/20 03:51:46;;;;;;;18.85;9.27;;;;;;;22.50;15.48;97883.72;5071301;28;20037;-73
2022/04/20 03:54:13;;;;;;;17.83;8.75;;;;;;;22.61;15.36;97879.53;5071998;28;20401;-74
2022/04/20 03:59:24;;;;;;;18.50;8.82;;;;;;;22.60;15.15;97891.13;5072115;28;20101;-74
2022/04/20 04:01:51;;;;;;;16.50;8.60;;;;;;;22.59;15.30;97889.56;5072185;28;20083;-74
2022/04/20 04:04:18;;;;;;;17.63;8.25;;;;;;;22.57;15.13;97881.59;5073377;28;20029;-74
2022/04/20 04:06:44;;;;;;;14.30;7.78;;;;;;;22.28;15.35;97891.75;5078518;28;20068;-73
2022/04/20 04:09:10;;;;;;;16.20;8.23;;;;;;;22.64;15.00;97886.28;5070813;28;20032;-73
2022/04/20 04:11:37;;;;;;;16.70;8.05;;;;;;;22.93;15.11;97897.72;5070805;28;20501;-74
2022/04/20 04:14:03;;;;;;;16.15;9.07;;;;;;;23.31;14.94;97893.34;5079173;28;20033;-74
2022/04/20 04:16:29;;;;;;;13.13;7.82;;;;;;;23.57;14.58;97889.53;5070411;28;20343;-74
2022/04/20 04:18:56;;;;;;;15.23;7.97;;;;;;;23.48;14.63;97900.56;5076444;28;20043;-73
2022/04/20 04:21:22;;;;;;;14.77;8.60;;;;;;;23.50;14.81;97897.34;5070775;28;20099;-74
2022/04/20 04:23:48;;;;;;;16.92;9.00;;;;;;;23.49;15.08;97902.16;5070751;28;20060;-77
2022/04/20 04:26:14;;;;;;;17.25;8.43;;;;;;;23.74;15.12;97907.97;5070606;28;20114;-76
2022/04/20 04:28:40;;;;;;;16.88;9.18;;;;;;;23.79;15.09;97906.66;5070465;28;20040;-77
2022/04/20 04:31:07;;;;;;;15.00;8.63;;;;;;;23.98;15.35;97909.41;5073023;28;20040;-77
2022/04/20 04:33:34;;;;;;;15.15;8.85;;;;;;;24.72;15.09;97912.34;5074637;28;20054;-77
2022/04/20 04:36:01;;;;;;;14.68;8.27;;;;;;;25.11;14.82;97911.28;5075418;28;20044;-78
2022/04/20 04:38:27;;;;;;;18.90;9.32;;;;;;;24.88;15.25;97908.75;5072833;28;20047;-77
2022/04/20 04:40:53;;;;;;;15.88;9.32;;;;;;;24.69;15.54;97916.06;5072902;28;20107;-77
2022/04/20 04:43:19;;;;;;;15.65;8.43;;;;;;;24.75;15.52;97914.28;5070723;28;20029;-78
2022/04/20 04:48:36;;;;;;;16.27;8.82;;;;;;;24.46;16.05;97913.44;5074019;28;20039;-77
2022/04/20 04:51:03;;;;;;;14.98;8.70;;;;;;;24.40;16.39;97913.19;5071525;28;20086;-75
2022/04/20 04:53:29;;;;;;;14.73;8.55;;;;;;;24.39;16.45;97911.59;5070312;28;20028;-77
2022/04/20 04:55:55;;;;;;;19.27;10.13;;;;;;;24.45;16.69;97909.88;5074163;28;20062;-76
2022/04/20 04:58:22;;;;;;;14.85;8.65;;;;;;;24.83;16.26;97907.28;5072241;28;20103;-77
2022/04/20 05:00:48;;;;;;;15.35;9.43;;;;;;;25.21;15.91;97901.75;5068833;28;20120;-76
2022/04/20 05:03:16;;;;;;;15.15;8.85;;;;;;;25.58;15.58;97894.66;5069644;28;20058;-74
2022/04/20 05:05:45;;;;;;;17.02;10.68;;;;;;;25.62;15.76;97901.75;5074480;28;20760;-75
2022/04/20 05:08:11;;;;;;;17.67;9.75;;;;;;;25.89;15.47;97899.28;5073637;28;20068;-75
2022/04/20 05:10:37;;;;;;;14.38;8.52;;;;;;;25.84;15.42;97896.22;5072306;28;20039;-74
2022/04/20 05:13:04;;;;;;;14.60;8.40;;;;;;;25.49;15.63;97902.94;5075058;28;20036;-75
2022/04/20 05:15:30;;;;;;;16.70;8.73;;;;;;;25.25;15.84;97897.59;5075959;28;20600;-75
2022/04/20 05:17:56;;;;;;;16.95;9.75;;;;;;;24.92;16.34;97896.19;5074477;28;20498;-76
2022/04/20 05:20:23;;;;;;;14.98;9.05;;;;;;;25.15;16.23;97895.91;5068311;28;20028;-76
2022/04/20 05:22:49;;;;;;;17.45;9.93;;;;;;;25.58;15.91;97891.84;5069222;28;20036;-76
2022/04/20 05:25:15;;;;;;;15.40;9.75;;;;;;;26.00;15.88;97888.44;5073431;28;20039;-74
2022/04/20 05:27:42;;;;;;;17.48;10.45;;;;;;;26.15;15.83;97888.00;5076211;28;20037;-75
2022/04/20 05:30:11;;;;;;;20.27;11.60;;;;;;;26.25;15.83;97887.66;5077222;28;20039;-75
2022/04/20 05:32:37;;;;;;;18.15;11.35;;;;;;;26.58;16.12;97893.78;5078644;28;20068;-75
2022/04/20 05:35:03;;;;;;;19.00;11.45;;;;;;;26.72;15.85;97896.09;5077802;28;20039;-75
2022/04/20 05:42:59;;;;;;;20.83;10.80;;;;;;;26.68;16.08;97892.59;5078462;28;20078;-75
2022/04/20 05:45:25;;;;;;;19.52;12.25;;;;;;;26.78;16.54;97890.69;5079224;28;20070;-75
2022/04/20 05:47:52;;;;;;;17.40;10.32;;;;;;;26.79;16.35;97892.25;5078601;28;20059;-75
2022/04/20 05:50:18;;;;;;;19.48;11.25;;;;;;;26.67;16.42;97891.03;5079971;28;20040;-75
2022/04/20 05:52:44;;;;;;;22.50;13.65;;;;;;;26.28;16.61;97885.97;5074392;28;20036;-75
2022/04/20 05:55:10;;;;;;;23.15;14.30;;;;;;;25.70;16.66;97879.81;5080081;28;20470;-75
2022/04/20 05:57:37;;;;;;;25.17;13.77;;;;;;;25.46;16.93;97881.38;5071348;28;20421;-75
2022/04/20 06:00:05;;;;;;;17.25;10.93;;;;;;;24.97;17.67;97875.19;5075298;28;20761;-75
2022/04/20 06:02:34;;;;;;;20.50;12.07;;;;;;;25.42;17.22;97878.63;5079240;28;20063;-75
2022/04/20 06:05:01;;;;;;;20.63;11.45;;;;;;;25.54;17.08;97875.06;5080802;28;20048;-75
2022/04/20 06:07:27;;;;;;;16.17;9.65;;;;;;;26.12;16.45;97870.00;5077402;28;20354;-75
2022/04/20 06:09:53;;;;;;;19.88;11.98;;;;;;;26.40;16.36;97877.47;5079406;28;20028;-75
2022/04/20 06:12:22;;;;;;;19.35;10.57;;;;;;;26.51;16.20;97869.44;5079108;28;20024;-75
2022/04/20 06:14:49;;;;;;;19.85;11.75;;;;;;;26.56;16.50;97873.72;5078268;28;20048;-75
2022/04/20 06:17:15;;;;;;;20.73;11.48;;;;;;;26.90;16.37;97870.13;5079299;28;20500;-75
2022/04/20 06:19:41;;;;;;;16.33;10.18;;;;;;;26.94;16.04;97867.94;5079500;28;20028;-75
2022/04/20 06:22:07;;;;;;;18.75;12.23;;;;;;;26.77;16.07;97872.22;5078253;28;20036;-75
2022/04/20 06:24:33;;;;;;;20.45;11.18;;;;;;;26.69;16.37;97871.66;5083154;28;20016;-75
2022/04/20 06:26:59;;;;;;;20.67;11.95;;;;;;;26.64;16.17;97867.38;5080204;28;20077;-75
2022/04/20 06:29:25;;;;;;;21.77;13.32;;;;;;;26.28;16.36;97867.03;5080200;28;20028;-75
2022/04/20 06:31:51;;;;;;;16.58;10.52;;;;;;;25.80;17.31;97856.97;5074869;28;20041;-75
2022/04/20 06:34:18;;;;;;;16.70;10.75;;;;;;;26.03;17.00;97856.59;5082126;28;20036;-76
2022/04/20 06:36:44;;;;;;;21.40;11.40;;;;;;;26.18;16.85;97854.13;5078958;28;20036;-76
2022/04/20 06:39:10;;;;;;;15.63;10.35;;;;;;;26.46;16.58;97860.81;5080403;28;20043;-75
2022/04/20 06:41:36;;;;;;;23.90;13.15;;;;;;;26.16;16.62;97847.38;5081846;28;20020;-76
2022/04/20 06:44:03;;;;;;;18.35;10.90;;;;;;;25.55;17.09;97844.94;5079557;28;20039;-75
2022/04/20 06:46:29;;;;;;;19.52;11.80;;;;;;;25.47;17.33;97847.19;5081475;28;20031;-75
2022/04/20 06:48:55;;;;;;;24.55;14.05;;;;;;;25.07;17.85;97843.97;5079995;28;20032;-75
2022/04/20 06:51:22;;;;;;;22.88;13.85;;;;;;;25.41;17.39;97835.69;5081473;28;20060;-75
2022/04/20 06:59:17;;;;;;;22.73;11.38;;;;;;;25.75;17.37;97837.06;5075496;28;20040;-75
2022/04/20 07:01:43;;;;;;;21.75;12.95;;;;;;;25.99;17.02;97830.63;5081303;28;20036;-75
2022/04/20 07:04:09;;;;;;;25.70;14.48;;;;;;;25.94;17.09;97828.38;5083856;28;20028;-75
2022/04/20 07:06:35;;;;;;;17.25;9.35;;;;;;;25.78;17.42;97836.16;5078652;28;20045;-75
2022/04/20 07:09:02;;;;;;;20.92;13.52;;;;;;;25.26;17.88;97826.13;5075432;28;20028;-75
2022/04/20 07:11:28;;;;;;;17.63;10.35;;;;;;;25.05;17.49;97835.19;5074267;28;20036;-75
2022/04/20 07:13:55;;;;;;;18.75;10.35;;;;;;;25.39;17.67;97837.38;5084005;28;20120;-75
2022/04/20 07:16:21;;;;;;;18.33;11.50;;;;;;;24.48;17.81;97835.97;5079234;28;20033;-75
2022/04/20 07:18:47;;;;;;;15.27;9.65;;;;;;;24.95;17.82;97833.47;5077391;28;20126;-75
2022/04/20 07:21:14;;;;;;;16.02;8.57;;;;;;;25.20;17.48;97836.34;5081057;28;20040;-75
2022/04/20 07:23:40;;;;;;;19.15;10.30;;;;;;;25.15;17.13;97828.47;5086182;28;20491;-75
2022/04/20 07:26:06;;;;;;;20.23;13.18;;;;;;;24.45;17.50;97838.91;5081122;28;20029;-75
2022/04/20 07:28:32;;;;;;;19.90;10.38;;;;;;;24.31;18.00;97836.47;5078257;28;20040;-75
2022/04/20 07:31:01;;;;;;;18.95;11.68;;;;;;;24.65;17.50;97828.31;5080247;28;20469;-75
2022/04/20 07:33:27;;;;;;;20.30;11.40;;;;;;;24.77;17.52;97824.78;5080337;28;20020;-75
2022/04/20 07:35:53;;;;;;;19.70;11.68;;;;;;;24.47;17.56;97816.78;5083104;28;20032;-75
2022/04/20 07:38:19;;;;;;;20.17;11.40;;;;;;;24.39;17.83;97832.22;5077125;28;20032;-75
2022/04/20 07:40:45;;;;;;;18.75;10.70;;;;;;;24.65;17.75;97833.91;5080384;28;20044;-76
2022/04/20 07:43:11;;;;;;;16.65;10.27;;;;;;;24.90;17.15;97817.16;5081716;28;20024;-76
2022/04/20 07:45:37;;;;;;;17.42;10.55;;;;;;;23.55;18.18;97830.34;5083662;28;20040;-75
2022/04/20 07:48:03;;;;;;;20.42;13.40;;;;;;;23.39;18.80;97830.31;5079153;28;20470;-75
2022/04/20 07:50:29;;;;;;;18.33;11.13;;;;;;;23.75;18.52;97825.47;5083252;28;20107;-75
2022/04/20 07:52:58;;;;;;;17.60;10.73;;;;;;;23.43;18.39;97819.84;5080569;28;20052;-75
2022/04/20 07:55:26;;;;;;;16.33;10.63;;;;;;;23.56;18.52;97808.72;5082129;28;20541;-75
2022/04/20 07:57:55;;;;;;;18.40;10.77;;;;;;;23.99;18.43;97812.06;5076436;28;20111;-75
2022/04/20 08:00:22;;;;;;;19.65;11.52;;;;;;;24.31;17.71;97819.66;5079451;28;20029;-76
2022/04/20 08:02:49;;;;;;;17.88;11.73;;;;;;;23.07;18.66;97821.81;5081047;28;20036;-75
2022/04/20 08:05:18;;;;;;;18.52;10.70;;;;;;;23.72;18.26;97819.94;5076283;28;20452;-76
2022/04/20 08:07:45;;;;;;;13.10;8.85;;;;;;;24.32;18.04;97815.63;5078193;28;20085;-75
2022/04/20 08:10:12;;;;;;;15.40;9.55;;;;;;;24.36;17.78;97807.88;5078690;28;20036;-75
2022/04/20 08:12:40;;;;;;;16.30;8.18;;;;;;;25.08;17.29;97797.00;5074702;28;20020;-75
2022/04/20 08:15:08;;;;;;;17.13;10.00;;;;;;;24.39;17.48;97812.59;5079019;28;20036;-75
2022/04/20 08:17:35;;;;;;;17.30;9.07;;;;;;;24.10;18.08;97818.19;5079518;28;20040;-75
2022/04/20 08:20:03;;;;;;;15.82;9.25;;;;;;;23.78;18.27;97807.75;5079468;28;20056;-75
2022/04/20 08:22:29;;;;;;;14.98;8.75;;;;;;;24.83;17.29;97803.38;5078611;28;20036;-76
2022/04/20 08:24:56;;;;;;;13.38;7.93;;;;;;;25.63;16.99;97801.28;5079775;28;20028;-76
2022/04/20 08:27:22;;;;;;;16.75;9.80;;;;;;;24.87;17.67;97806.84;5077884;28;20494;-76
2022/04/20 08:29:49;;;;;;;13.75;9.10;;;;;;;25.68;17.15;97811.97;5081987;28;20456;-76
2022/04/20 08:32:16;;;;;;;12.82;8.48;;;;;;;25.62;16.68;97810.97;5076649;28;20064;-76
2022/04/20 08:34:43;;;;;;;11.68;7.90;;;;;;;25.49;17.07;97818.63;5076871;28;20090;-76
2022/04/20 08:37:10;;;;;;;13.07;7.95;;;;;;;25.83;16.69;97808.25;5081477;28;20024;-76
2022/04/20 08:39:39;;;;;;;13.63;7.93;;;;;;;26.30;16.37;97805.44;5079151;28;20043;-75
2022/04/20 08:42:07;;;;;;;14.85;8.65;;;;;;;25.97;16.27;97798.56;5080616;28;20029;-75
2022/04/20 08:44:37;;;;;;;11.07;6.85;;;;;;;25.99;16.55;97802.50;5078661;28;20033;-75
2022/04/20 08:47:07;;;;;;;11.23;7.18;;;;;;;25.97;16.08;97798.56;5079581;28;20029;-75
2022/04/20 08:49:33;;;;;;;12.43;8.00;;;;;;;25.08;17.08;97783.75;5078396;28;20024;-75
2022/04/20 08:54:46;;;;;;;15.35;8.15;;;;;;;25.51;17.06;97782.44;5079022;28;20048;-76
2022/04/20 08:57:16;;;;;;;12.65;8.07;;;;;;;26.13;16.22;97786.38;5074154;28;20491;-75
2022/04/20 08:59:48;;;;;;;15.32;6.57;;;;;;;26.32;16.30;97774.84;5081662;28;20478;-75
2022/04/20 09:02:15;;;;;;;10.45;6.38;;;;;;;26.22;16.06;97775.19;5076397;28;20041;-75
2022/04/20 09:04:42;;;;;;;11.45;7.50;;;;;;;25.49;16.70;97780.06;5077105;28;20035;-76
2022/04/20 09:07:09;;;;;;;9.93;6.40;;;;;;;25.25;17.18;97781.63;5081448;28;20031;-75
2022/04/20 09:09:36;;;;;;;14.80;8.23;;;;;;;25.20;17.07;97776.56;5075667;28;20036;-76
2022/04/20 09:12:23;;;;;;;11.18;7.38;;;;;;;24.73;17.31;97773.53;5079216;28;20093;-76
2022/04/20 09:14:51;;;;;;;11.07;8.02;;;;;;;24.87;17.42;97781.56;5079082;28;20519;-76
2022/04/20 09:17:21;;;;;;;13.07;7.57;;;;;;;25.16;17.50;97782.28;5079861;28;20024;-76
2022/04/20 09:19:51;;;;;;;12.10;8.25;;;;;;;25.53;16.88;97777.94;5075128;28;20036;-76
2022/04/20 09:22:25;;;;;;;11.93;7.90;;;;;;;24.70;17.20;97778.03;5082349;28;20028;-75
2022/04/20 09:25:08;;;;;;;12.20;6.25;;;;;;;24.94;17.42;97770.13;5078160;28;20031;-76
2022/04/20 09:27:39;;;;;;;15.73;9.25;;;;;;;24.51;17.56;97778.19;5074136;28;20075;-75
2022/04/20 09:30:10;;;;;;;12.63;6.57;;;;;;;25.37;17.29;97784.41;5076746;28;20505;-76
2022/04/20 09:32:37;;;;;;;;;;;;;;;25.58;17.57;97779.38;5075501;28;20103;-76
2022/04/20 09:35:09;;;;;;;9.60;5.45;;;;;;;26.10;16.55;97776.81;5078643;28;19924;-76
2022/04/20 09:37:36;;;;;;;10.95;6.63;;;;;;;26.13;16.37;97775.91;5079072;28;20119;-75
2022/04/20 09:40:05;;;;;;;11.25;6.80;;;;;;;26.19;15.90;97776.91;5078212;28;20094;-76
2022/04/20 09:42:34;;;;;;;10.88;6.97;;;;;;;25.19;16.73;97778.56;5077060;28;20036;-76
2022/04/20 09:45:02;;;;;;;10.93;6.50;;;;;;;25.06;16.97;97779.81;5072059;28;20060;-76
2022/04/20 09:50:21;;;;;;;7.38;4.93;;;;;;;25.50;16.96;97776.03;5072706;28;20544;-75
2022/04/20 09:52:49;;;;;;;9.50;5.75;;;;;;;25.03;17.21;97775.88;5078551;28;20036;-76
2022/04/20 09:55:26;;;;;;;11.93;6.03;;;;;;;25.35;16.75;97775.66;5076863;28;20101;-75
2022/04/20 09:57:53;;;;;;;9.70;5.85;;;;;;;25.87;16.13;97772.34;5077032;28;20024;-76
2022/04/20 10:00:20;;;;;;;12.02;8.07;;;;;;;24.67;16.98;97772.50;5073577;28;20112;-75
2022/04/20 10:02:49;;;;;;;10.65;7.43;;;;;;;23.85;17.85;97781.56;5079027;28;20039;-75
2022/04/20 10:05:16;;;;;;;9.77;6.35;;;;;;;24.28;17.45;97775.63;5076941;28;20119;-76
2022/04/20 10:07:43;;;;;;;10.02;6.13;;;;;;;24.64;17.00;97770.59;5079020;28;20024;-76
2022/04/20 10:10:10;;;;;;;10.35;5.18;;;;;;;25.44;16.78;97772.19;5078281;28;20059;-76
2022/04/20 10:12:41;;;;;;;10.73;5.35;;;;;;;25.51;16.29;97774.00;5076568;28;20074;-75
2022/04/20 10:17:57;;;;;;;8.20;5.68;;;;;;;24.62;16.68;97767.44;5083078;28;20039;-76
2022/04/20 10:20:31;;;;;;;10.20;5.55;;;;;;;24.94;16.56;97758.88;5074928;28;20539;-75
2022/04/20 10:23:00;;;;;;;5.70;4.70;;;;;;;25.51;15.62;97765.56;5076023;28;20086;-76
2022/04/20 10:25:28;;;;;;;4.88;3.53;;;;;;;25.61;15.97;97758.78;5073422;28;20036;-75
2022/04/20 10:28:11;;;;;;;5.55;4.40;;;;;;;25.15;16.08;97760.25;5076954;28;20524;-76
2022/04/20 10:30:40;;;;;;;6.43;3.95;;;;;;;26.15;15.62;97758.56;5078615;28;20513;-76
2022/04/20 10:33:23;;;;;;;5.22;3.90;;;;;;;25.90;15.55;97759.41;5069470;28;20023;-76
2022/04/20 10:36:12;;;;;;;6.15;4.70;;;;;;;25.92;15.30;97757.72;5076311;28;20045;-76
2022/04/20 10:38:38;;;;;;;6.03;3.65;;;;;;;26.23;15.19;97757.88;5073045;28;20497;-77
2022/04/20 10:41:10;;;;;;;5.05;3.33;;;;;;;25.91;15.53;97766.59;5070250;28;20479;-77
2022/04/20 10:43:41;;;;;;;5.00;3.85;;;;;;;25.97;15.77;97756.34;5077385;28;20024;-77
2022/04/20 10:46:08;;;;;;;4.60;3.17;;;;;;;26.34;15.38;97749.81;5071530;28;20043;-77
2022/04/20 10:49:04;;;;;;;4.38;3.55;;;;;;;26.60;15.05;97750.47;5077047;28;20515;-77
2022/04/20 10:51:30;;;;;;;7.53;4.20;;;;;;;26.69;14.59;97754.16;5070310;28;20025;-77
2022/04/20 10:54:29;;;;;;;4.65;3.67;;;;;;;26.56;14.87;97750.59;5069995;28;20052;-76
2022/04/20 10:57:05;;;;;;;5.65;3.30;;;;;;;26.63;15.24;97741.09;5071654;28;20028;-77
2022/04/20 10:59:32;;;;;;;4.22;3.38;;;;;;;27.05;15.20;97741.53;5083512;28;20040;-78
2022/04/20 11:01:58;;;;;;;5.47;3.63;;;;;;;27.23;14.68;97742.41;5071999;28;20048;-78
2022/04/20 11:04:48;;;;;;;4.57;3.20;;;;;;;27.24;14.58;97746.78;5076551;28;20089;-77
2022/04/20 11:07:15;;;;;;;4.65;3.55;;;;;;;27.69;14.49;97736.94;5077825;28;20037;-77
2022/04/20 11:09:45;;;;;;;3.80;2.78;;;;;;;27.55;14.50;97729.06;5078460;28;20111;-77
2022/04/20 11:21:09;;;;;;;3.22;2.28;;;;;;;28.29;14.10;97723.03;5076816;28;20121;-78
2022/04/20 11:23:59;;;;;;;3.30;1.77;;;;;;;28.15;13.87;97707.53;5073693;28;20623;-77
2022/04/20 11:26:29;;;;;;;4.30;2.63;;;;;;;27.91;14.40;97715.03;5066828;28;20028;-77
2022/04/20 11:28:58;;;;;;;4.30;2.58;;;;;;;28.15;14.01;97713.16;5070825;28;20765;-78
2022/04/20 11:31:25;;;;;;;4.53;1.80;;;;;;;27.96;14.26;97708.75;5073642;28;20154;-77
2022/04/20 11:33:52;;;;;;;3.50;2.30;;;;;;;28.40;14.20;97703.59;5071537;28;20374;-77
2022/04/20 11:36:19;;;;;;;4.10;3.10;;;;;;;27.19;14.56;97709.97;5076330;28;20040;-77
2022/04/20 11:38:50;;;;;;;4.57;2.65;;;;;;;26.40;14.98;97702.16;5072747;28;20554;-77
2022/04/20 11:41:19;;;;;;;3.00;2.28;;;;;;;27.42;14.47;97715.09;5075677;28;20541;-76
2022/04/20 11:43:45;;;;;;;3.47;2.60;;;;;;;26.49;15.30;97702.25;5078504;28;20031;-76
2022/04/20 11:46:13;;;;;;;3.13;2.30;;;;;;;27.05;14.53;97696.47;5074054;28;20852;-76
2022/04/20 11:48:56;;;;;;;2.00;1.80;;;;;;;27.50;14.58;97709.94;5072208;28;20037;-77
2022/04/20 11:51:29;;;;;;;2.28;2.08;;;;;;;27.80;14.45;97706.22;5071984;28;20024;-77
2022/04/20 11:53:55;;;;;;;2.70;1.77;;;;;;;26.87;14.70;97694.31;5072622;28;20519;-76
2022/04/20 11:56:36;;;;;;;2.80;1.95;;;;;;;27.51;15.22;97700.22;5073491;28;20032;-76
2022/04/20 11:59:07;;;;;;;2.63;2.00;;;;;;;27.27;14.68;97697.94;5076733;28;20024;-75
2022/04/20 12:01:35;;;;;;;6.85;2.63;;;;;;;26.62;15.12;97686.03;5076243;28;20053;-76
2022/04/20 12:04:16;;;;;;;3.90;3.38;;;;;;;26.09;14.81;97683.13;5078819;28;20036;-76
2022/04/20 12:06:52;;;;;;;2.53;2.22;;;;;;;24.85;16.45;97685.75;5074216;28;20485;-75